• Join FlightAware (Why Join?)
  • Login
  • US Flag 
02:07PM EDT


 

Airport Tracker/Info


-or-


 

Live Flight TrackerFlight Track Log ✈ DAL2545 ✈ 26-Mar-2014 ✈ KALB - KATL

Flight Track Log - Related Links

Times and Time Zones

All times are in EDT time to prevent confusion due to time zone crossing. See the DAL2545 flight status page for this flight to view local times or setup timezone preferences in your user account.

Time Position Orientation Groundspeed Altitude Reporting Facility
EDT Latitude Longitude Course Direction KTS MPH feet Rate Location/Type
06:06AM 42.7658 -73.8053 200° South 131 151 1,700  Level Boston Center
06:06AM 42.7700 -73.8067 346° North 134 154 1,800 2,340 Climbing Boston Center
06:07AM 42.8142 -73.8331 336° Northwest 222 255 4,000 1,680 Climbing Boston Center
06:08AM 42.8600 -73.8989 314° West 238 274 5,000 2,160 Climbing Boston Center
06:09AM 42.5145 -74.1299 200° South  Level Estimated
06:09AM 42.8908 -73.9836 296° West 272 313 8,500  Level Boston Center
06:10AM 42.4361 -74.2387 198° South  Level Estimated
06:10AM 42.8903 -74.0892 270° West 285 328 11,700  Level Boston Center
06:11AM 42.3576 -74.3472 200° South  Level Estimated
06:11AM 42.7997 -74.1064 188° South 357 411 14,600  Level Boston Center
06:12AM 42.7081 -74.0953 175° South 336 387 20,100 4,020 Climbing Boston Center
06:13AM 42.6169 -74.0861 176° South 301 346 22,700 1,680 Climbing Boston Center
06:14AM 42.5408 -74.0753 174° South 307 353 23,600 1,380 Climbing Boston Center
06:15AM 42.4511 -74.0625 174° South 320 368 25,600 1,140 Climbing Boston Center
06:16AM 42.3606 -74.0514 175° South 325 374 26,000 180 Climbing Boston Center
06:17AM 42.2714 -74.0406 175° South 325 374 26,000  Level Boston Center
06:18AM 42.1803 -74.0375 179° South 326 375 26,000  Level Boston Center
06:19AM 42.0806 -74.0458 184° South 355 409 26,000  Level Boston Center
06:20AM 41.9583 -74.0517 182° South 366 421 26,000  Level Boston Center
06:21AM 41.8561 -74.0575 182° South 367 422 26,000  Level Boston Center
06:22AM 41.7581 -74.0625 182° South 368 423 26,000  Level Boston Center
06:23AM 41.6553 -74.0675 182° South 369 425 26,000  Level Boston Center
06:24AM 41.5517 -74.0742 183° South 370 426 26,000  Level Boston Center
06:25AM 41.4736 -74.0769 182° South 373 429 26,000  Level New York Center
06:26AM 41.3692 -74.0858 184° South 373 429 26,000 180 Level New York Center
06:27AM 41.2650 -74.0889 181° South 373 429 26,400 900 Climbing New York Center
06:28AM 41.1625 -74.1003 185° South 373 429 27,900 780 Climbing New York Center
06:29AM 41.0850 -74.1928 222° Southwest 352 405 28,000  Climbing New York Center
06:30AM 41.0131 -74.3019 229° Southwest 367 422 28,000  Level New York Center
06:31AM 40.9431 -74.4136 230° Southwest 389 448 28,000  Level New York Center
06:32AM 40.8728 -74.5250 230° Southwest 399 459 28,000 -60 Level New York Center
06:33AM 40.8047 -74.6364 231° Southwest 399 459 27,900  Descending New York Center
06:34AM 40.7364 -74.7475 231° Southwest 399 459 28,000  Climbing New York Center
06:35AM 40.6639 -74.8583 229° Southwest 404 465 28,000  Level New York Center
06:36AM 40.5953 -74.9717 231° Southwest 404 465 28,000  Level New York Center
06:37AM 40.5244 -75.0822 230° Southwest 404 465 28,000  Level New York Center
06:38AM 40.4558 -75.1925 231° Southwest 404 465 28,000  Level New York Center
06:39AM 40.3894 -75.2972 230° Southwest 409 471 28,000 60 Level New York Center
06:40AM 40.3181 -75.4122 231° Southwest 409 471 28,200 780 Climbing New York Center
06:41AM 40.2450 -75.5242 229° Southwest 409 471 29,600 1,500 Climbing New York Center
06:42AM 40.1794 -75.6475 235° Southwest 409 471 31,200 1,140 Climbing New York Center
06:43AM 40.1181 -75.7708 237° Southwest 414 476 31,900 300 Climbing New York Center
06:44AM 40.0564 -75.8939 237° Southwest 414 476 31,900  Level New York Center
06:45AM 39.9947 -76.0194 237° Southwest 414 476 32,000  Climbing New York Center
06:46AM 39.9306 -76.1444 236° Southwest 419 482 31,900  Descending New York Center
06:48AM 39.8028 -76.3883 236° Southwest 392 451 32,000  Climbing Washington Center
06:49AM 39.7372 -76.5117 235° Southwest 407 468 31,900  Descending Washington Center
06:50AM 39.6694 -76.6375 235° Southwest 419 482 32,000  Climbing Washington Center
06:51AM 39.6039 -76.7606 235° Southwest 419 482 32,000  Level Washington Center
06:52AM 39.5422 -76.8806 236° Southwest 419 482 32,000 600 Level Washington Center
06:53AM 39.4742 -76.9950 232° Southwest 414 476 33,300 960 Climbing Washington Center
06:54AM 39.3919 -77.0872 221° Southwest 408 470 34,000 300 Climbing Washington Center
06:55AM 39.3031 -77.1794 219° Southwest 408 470 34,000 300 Level Washington Center
06:56AM 39.2142 -77.2739 219° Southwest 414 476 34,600 480 Climbing Washington Center
06:57AM 39.1233 -77.3681 219° Southwest 419 482 35,000 540 Climbing Washington Center
06:58AM 39.0303 -77.4647 219° Southwest 424 488 35,800 480 Climbing Washington Center
06:59AM 38.9453 -77.5533 219° Southwest 419 482 36,000 60 Climbing Washington Center
07:00AM 38.8606 -77.6444 220° Southwest 414 476 36,000  Level Washington Center
07:01AM 38.7714 -77.7325 218° Southwest 409 471 36,000  Level Washington Center
07:02AM 38.6886 -77.8178 219° Southwest 414 476 36,000  Level Washington Center
07:03AM 38.6072 -77.9244 226° Southwest 414 476 36,000  Level Washington Center
07:04AM 38.5403 -78.0389 233° Southwest 414 476 36,000  Level Washington Center
07:05AM 38.4733 -78.1536 233° Southwest 414 476 36,000  Level Washington Center
07:06AM 38.4042 -78.2678 232° Southwest 414 476 36,000  Level Washington Center
07:07AM 38.3369 -78.3817 233° Southwest 409 471 36,000  Level Washington Center
07:08AM 38.2717 -78.4956 234° Southwest 409 471 36,000  Level Washington Center
07:09AM 38.1997 -78.6197 234° Southwest 404 465 36,000  Level Washington Center
07:10AM 38.1322 -78.7306 232° Southwest 404 465 36,000  Level Washington Center
07:11AM 38.0644 -78.8436 233° Southwest 404 465 36,000  Level Washington Center
07:12AM 37.9967 -78.9567 233° Southwest 404 465 36,000  Level Washington Center
07:13AM 37.9378 -79.0542 233° Southwest 404 465 36,000  Level Washington Center
07:14AM 37.8678 -79.1614 230° Southwest 404 465 36,000  Level Washington Center
07:15AM 37.7939 -79.2631 227° Southwest 404 465 36,000  Level Washington Center
07:16AM 37.7089 -79.3744 226° Southwest 404 465 36,000  Level Washington Center
07:17AM 37.6414 -79.4681 228° Southwest 404 465 36,000  Level Washington Center
07:18AM 37.5583 -79.5817 227° Southwest 404 465 36,000  Level Washington Center
07:19AM 37.4906 -79.6750 228° Southwest 404 465 36,000  Level Washington Center
07:20AM 37.4158 -79.7808 228° Southwest 404 465 36,000  Level Washington Center
07:22AM 37.2694 -79.9783 227° Southwest 389 448 36,000  Level Atlanta Center
07:23AM 37.1953 -80.0761 226° Southwest 383 441 36,000  Level Atlanta Center
07:24AM 37.1217 -80.1786 228° Southwest 383 441 36,000  Level Atlanta Center
07:25AM 37.0375 -80.2894 226° Southwest 392 451 36,000  Level Atlanta Center
07:26AM 36.9614 -80.3917 227° Southwest 392 451 36,000  Level Atlanta Center
07:27AM 36.8869 -80.4911 227° Southwest 397 457 36,000  Level Atlanta Center
07:28AM 36.8128 -80.5903 227° Southwest 397 457 36,000  Level Atlanta Center
07:29AM 36.7483 -80.6761 227° Southwest 390 449 36,000  Level Atlanta Center
07:30AM 36.6739 -80.7750 227° Southwest 390 449 36,000  Level Atlanta Center
07:31AM 36.5992 -80.8711 226° Southwest 390 449 36,000  Level Atlanta Center
07:32AM 36.5247 -80.9697 227° Southwest 390 449 36,000  Level Atlanta Center
07:33AM 36.4500 -81.0681 227° Southwest 390 449 36,000  Level Atlanta Center
07:34AM 36.3750 -81.1636 226° Southwest 385 443 36,000  Level Atlanta Center
07:35AM 36.3022 -81.2589 227° Southwest 385 443 36,000  Level Atlanta Center
07:36AM 36.2272 -81.3594 227° Southwest 385 443 36,000  Level Atlanta Center
07:37AM 36.1542 -81.4544 226° Southwest 385 443 36,000  Level Atlanta Center
07:38AM 36.0831 -81.5517 228° Southwest 379 436 36,000  Level Atlanta Center
07:39AM 36.0100 -81.6489 227° Southwest 384 442 36,000 -480 Level Atlanta Center
07:40AM 35.9367 -81.7433 226° Southwest 384 442 35,100 -540 Descending Atlanta Center
07:41AM 35.8633 -81.8378 226° Southwest 379 436 35,000 -60 Descending Atlanta Center
07:42AM 35.7878 -81.9319 225° Southwest 386 444 35,000 480 Level Atlanta Center
07:43AM 35.7225 -82.0231 229° Southwest 374 430 36,000  Climbing Atlanta Center
07:44AM 35.6469 -82.1144 225° Southwest 374 430 35,000 -540 Descending Atlanta Center
07:45AM 35.5753 -82.2056 226° Southwest 374 430 35,000  Level Atlanta Center
07:46AM 35.5036 -82.2964 226° Southwest 379 436 35,000 -360 Level Atlanta Center
07:47AM 35.4317 -82.3872 226° Southwest 379 436 34,300 -1,440 Descending Atlanta Center
07:48AM 35.3558 -82.4828 226° Southwest 379 436 32,200 -1,980 Descending Atlanta Center
07:49AM 35.2756 -82.5836 226° Southwest 392 451 30,400 -1,380 Descending Atlanta Center
07:50AM 35.1911 -82.6792 223° Southwest 407 468 29,500 -720 Descending Atlanta Center
07:51AM 35.1172 -82.7769 227° Southwest 407 468 29,000 -300 Descending Atlanta Center
07:52AM 35.0367 -82.8744 225° Southwest 407 468 29,000 -300 Level Atlanta Center
07:53AM 34.9644 -82.9642 226° Southwest 400 460 28,500 -780 Descending Atlanta Center
07:54AM 34.8922 -83.0486 224° Southwest 370 426 27,500 -1,020 Descending Atlanta Center
07:55AM 34.8219 -83.1331 225° Southwest 364 419 26,500 -780 Descending Atlanta Center
07:56AM 34.7558 -83.2197 227° Southwest 354 407 26,000 -420 Descending Atlanta Center
07:57AM 34.6894 -83.3061 227° Southwest 354 407 25,700 -1,380 Descending Atlanta Center
07:58AM 34.5919 -83.3878 215° Southwest 368 423 23,300 -2,400 Descending Atlanta Center
07:59AM 34.5006 -83.4717 217° Southwest 398 458 21,000 -2,340 Descending Atlanta Center
08:00AM 34.4153 -83.5478 216° Southwest 404 465 18,700 -2,160 Descending Atlanta Center
08:01AM 34.3319 -83.6211 216° Southwest 391 450 16,700 -2,100 Descending Atlanta Center
08:02AM 34.2508 -83.6944 217° Southwest 381 438 14,600 -2,100 Descending Atlanta Center
08:03AM 34.1697 -83.7650 216° Southwest 364 419 12,600 -1,320 Descending Atlanta Center
08:04AM 34.0967 -83.8281 216° Southwest 342 394 12,000 -840 Descending Atlanta Center
08:05AM 34.0425 -83.8883 223° Southwest 318 366 11,000 -1,200 Descending Atlanta Center
08:06AM 33.9819 -83.9536 222° Southwest 296 341 9,700 -1,020 Descending Atlanta Center
08:07AM 33.9028 -83.9686 189° South 285 328 9,000 -360 Descending Atlanta Center
08:08AM 33.8172 -83.9639 177° South 295 339 9,000 -600 Level Atlanta Center
08:09AM 33.7336 -83.9689 183° South 300 345 7,900 -1,020 Descending Atlanta Center
08:10AM 33.6544 -83.9964 196° South 290 334 7,000 -720 Descending Atlanta Center
08:12AM 33.6333 -84.1500 261° West 207 238 5,500 -780 Descending Atlanta TRACON
08:13AM 33.6333 -84.2167 270° West 197 227 4,500 -1,020 Descending Atlanta TRACON
08:14AM 33.6333 -84.2667 270° West 168 193 3,700 -960 Descending Atlanta TRACON
08:15AM 33.6333 -84.3167 270° West 169 194 2,700 -900 Descending Atlanta TRACON
08:16AM 33.6333 -84.3667 270° West 136 157 1,900 -840 Descending Atlanta TRACON